Bemidji Regional Airport Bemidji US
ICAO: KBJI
IATA: BJI
Category: Medium
Scheduled Services: No

Elevation: 1391 ft
TransAlt. 18000 ft.

Airport Communications:
AWOS 3:119.275
MINNEAPOLIS CNTR:134.75
PRINCETON RDO:123.6
CTAF/UNICOM:122.8

KBJI Zoom In..

If you have problems with the map follow the link
https://www.worldairports.se/pages/airport.php?
ICAO=KBJI

Runways:

(A) RW 07 length 5700 ft width 150 ft
---- / hdg 70

(B) RW 13 length 7004 ft width 150 ft
---- / hdg 130

(C) RW 25 length 5700 ft width 150 ft
ILS 109.35 / hdg 250

(D) RW 31 length 7004 ft width 150 ft
ILS 111.90 / hdg 310

Location; KBJI
Day. 18 / Time. 03.35 Zulu
* Altimeter: 29.94
* Temperature: -09° c. -15.8°f.
* Wind from: 120° Speed 11 kn.
Dewpoint: -11° c.
Visibility: 2 m.
Clouds: Scattered 1200 ft.
Clouds: Broken 2300 ft.
Clouds: Overcast 3100 ft.
Conditions: Light Snow.

KBJI 180335Z AUTO 12011KT 2 1/2SM -SN SCT012 BKN023 OVC031 M09/M11 A2994 RMK AO2 T10951112


Wind From 120°
Speed 11 kn.

 
 
jpsmedia worldairports.se 2020   terms of use